• Join FlightAware (Why Join?)
  • Login
  • US Flag 
02:24AM EDT


 

Airport Tracker/Info


-or-


 

Live Flight TrackerFlight Track Log ✈ FIN666 ✈ 31-May-2014 ✈ EKCH / CPH - EFHK / HEL

Flight Track Log - Related Links

Times and Time Zones

All times are in EDT time to prevent confusion due to time zone crossing. See the FIN666 flight status page for this flight to view local times or setup timezone preferences in your user account.

Time Position Orientation Groundspeed Altitude Reporting Facility
EDT Latitude Longitude Course Direction KTS MPH feet Rate Location/Type
07:39AM 55.8329 13.1000 49° Northeast  Level Estimated
07:40AM 55.9042 13.2491 50° Northeast  Level Estimated
07:41AM 55.9753 13.3988 50° Northeast  Level Estimated
07:42AM 56.0462 13.5490 50° Northeast  Level Estimated
07:43AM 56.1170 13.6997 50° Northeast  Level Estimated
07:44AM 56.1885 13.8532 50° Northeast  Level Estimated
07:45AM 56.2598 14.0071 50° Northeast  Level Estimated
07:46AM 56.3310 14.1617 50° Northeast  Level Estimated
07:47AM 56.4020 14.3169 50° Northeast  Level Estimated
07:48AM 56.4727 14.4726 51° Northeast  Level Estimated
07:49AM 56.5433 14.6289 51° Northeast  Level Estimated
07:50AM 56.6137 14.7858 51° Northeast  Level Estimated
07:51AM 56.6839 14.9432 51° Northeast  Level Estimated
07:52AM 56.7538 15.1013 51° Northeast  Level Estimated
07:53AM 56.8236 15.2599 51° Northeast  Level Estimated
07:54AM 56.8932 15.4192 51° Northeast  Level Estimated
07:55AM 56.9557 15.5630 51° Northeast  Level Estimated
07:56AM 57.0179 15.7073 52° Northeast  Level Estimated
07:57AM 57.0800 15.8521 52° Northeast  Level Estimated
07:58AM 57.1420 15.9973 52° Northeast  Level Estimated
07:59AM 57.2038 16.1431 52° Northeast  Level Estimated
08:00AM 57.2654 16.2894 52° Northeast  Level Estimated
08:01AM 57.3268 16.4361 52° Northeast  Level Estimated
08:02AM 57.3881 16.5833 52° Northeast  Level Estimated
08:03AM 57.4492 16.7310 52° Northeast  Level Estimated
08:04AM 57.5101 16.8792 53° Northeast  Level Estimated
08:05AM 57.5709 17.0280 53° Northeast  Level Estimated
08:06AM 57.6314 17.1772 53° Northeast  Level Estimated
08:07AM 57.6918 17.3269 53° Northeast  Level Estimated
08:08AM 57.7520 17.4771 53° Northeast  Level Estimated
08:09AM 57.8121 17.6278 53° Northeast  Level Estimated
08:10AM 57.8719 17.7790 53° Northeast  Level Estimated
08:11AM 57.9316 17.9307 53° Northeast  Level Estimated
08:12AM 57.9911 18.0829 54° Northeast  Level Estimated
08:13AM 58.0504 18.2356 54° Northeast  Level Estimated
08:14AM 58.1096 18.3888 54° Northeast  Level Estimated
08:15AM 58.1685 18.5425 54° Northeast  Level Estimated
08:16AM 58.2273 18.6968 54° Northeast  Level Estimated
08:17AM 58.2859 18.8515 54° Northeast  Level Estimated
08:18AM 58.3442 19.0068 54° Northeast  Level Estimated
08:19AM 58.4025 19.1626 54° Northeast  Level Estimated
08:20AM 58.4605 19.3189 55° Northeast  Level Estimated
08:21AM 58.5183 19.4757 55° Northeast  Level Estimated
08:22AM 58.5759 19.6330 55° Northeast  Level Estimated
08:23AM 58.6334 19.7908 55° Northeast  Level Estimated
08:24AM 58.6906 19.9492 55° Northeast  Level Estimated
08:25AM 58.7476 20.1081 55° Northeast  Level Estimated
08:26AM 58.8045 20.2675 55° Northeast  Level Estimated
08:27AM 58.8611 20.4274 56° Northeast  Level Estimated
08:28AM 58.9176 20.5879 56° Northeast  Level Estimated
08:29AM 58.9810 20.7693 56° Northeast  Level Estimated
08:30AM 59.0441 20.9514 56° Northeast  Level Estimated
08:31AM 59.1070 21.1341 56° Northeast  Level Estimated
08:32AM 59.1696 21.3175 56° Northeast  Level Estimated
08:33AM 59.2319 21.5016 56° Northeast  Level Estimated
08:34AM 59.2940 21.6864 57° Northeast  Level Estimated
08:35AM 59.3558 21.8718 57° Northeast  Level Estimated
08:36AM 59.4174 22.0579 57° Northeast  Level Estimated
08:37AM 59.4787 22.2447 57° Northeast  Level Estimated
08:38AM 59.5397 22.4322 57° Northeast  Level Estimated
08:39AM 59.6004 22.6203 57° Northeast  Level Estimated
08:40AM 59.6609 22.8092 58° Northeast  Level Estimated
08:41AM 59.7211 22.9987 58° Northeast  Level Estimated
08:42AM 59.7811 23.1889 58° Northeast  Level Estimated
08:43AM 59.8408 23.3797 58° Northeast  Level Estimated
08:44AM 59.9001 23.5713 58° Northeast  Level Estimated
08:45AM 59.9593 23.7635 58° Northeast  Level Estimated
08:46AM 60.0181 23.9565 59° Northeast  Level Estimated
08:47AM 60.0766 24.1501 59° Northeast  Level Estimated
08:48AM 60.1349 24.3444 59° Northeast  Level Estimated
08:49AM 60.1928 24.5394 59° Northeast  Level Estimated
08:50AM 60.2531 24.7437 59° Northeast  Level Estimated
08:51AM 60.3130 24.9488 59° Northeast  Level Estimated
08:52AM 60.3172 24.9633 60° Northeast  Level Estimated
08:53AM 60.3172 24.9633 North  Level Estimated
08:54AM 60.3172 24.9633 North  Level Estimated
08:55AM 60.3172 24.9633 North  Level Estimated
08:56AM 60.3172 24.9633 North  Level Estimated
08:57AM 60.3172 24.9633 North  Level Estimated
08:58AM 60.3172 24.9633 North  Level Estimated